createdAt,value
2018-09-24T00:00:11.029Z,0.00
2018-09-24T00:01:10.974Z,0.00
2018-09-24T00:02:11.031Z,0.00
2018-09-24T00:03:11.089Z,0.00
2018-09-24T00:04:11.146Z,0.00
2018-09-24T00:05:11.206Z,0.00
2018-09-24T00:06:11.261Z,0.00
2018-09-24T00:07:11.319Z,0.00
2018-09-24T00:08:11.376Z,0.00
2018-09-24T00:09:11.437Z,0.00
2018-09-24T00:10:11.491Z,0.00
2018-09-24T00:11:11.549Z,0.00
2018-09-24T00:12:11.606Z,0.00
2018-09-24T00:13:11.666Z,0.00
2018-09-24T00:14:11.721Z,0.00
2018-09-24T00:15:11.778Z,0.00
2018-09-24T00:16:11.836Z,0.00
2018-09-24T00:17:11.895Z,0.00
2018-09-24T00:18:11.951Z,0.00
2018-09-24T00:19:12.008Z,0.00
2018-09-24T00:20:12.066Z,0.00
2018-09-24T00:21:12.124Z,0.00
2018-09-24T00:22:12.181Z,0.00
2018-09-24T00:23:12.238Z,0.00
2018-09-24T00:24:12.296Z,0.00
2018-09-24T00:25:12.355Z,0.00
2018-09-24T00:26:12.410Z,0.00
2018-09-24T00:27:12.467Z,0.00
2018-09-24T00:28:12.525Z,0.00
2018-09-24T00:29:12.582Z,0.00
2018-09-24T00:30:12.639Z,0.00
2018-09-24T00:31:12.698Z,0.00
2018-09-24T00:32:13.005Z,0.00
2018-09-24T00:33:12.812Z,0.00
2018-09-24T00:34:12.871Z,0.00
2018-09-24T00:35:12.926Z,0.00
2018-09-24T00:36:12.984Z,0.00
2018-09-24T00:37:13.041Z,0.00
2018-09-24T00:38:13.098Z,0.00
2018-09-24T00:39:13.155Z,0.00
2018-09-24T00:40:13.213Z,0.00
2018-09-24T00:41:13.270Z,0.00
2018-09-24T00:42:13.327Z,0.00
2018-09-24T00:43:13.443Z,0.00
2018-09-24T00:44:13.442Z,0.00
2018-09-24T00:45:13.501Z,0.00
2018-09-24T00:46:13.559Z,0.00
2018-09-24T00:47:13.864Z,0.00
2018-09-24T00:48:13.670Z,0.00
2018-09-24T00:49:13.730Z,0.00
2018-09-24T00:50:13.785Z,0.00
2018-09-24T00:51:13.843Z,0.00
2018-09-24T00:52:13.900Z,0.00
2018-09-24T00:53:13.958Z,0.00
2018-09-24T00:54:14.015Z,0.00
2018-09-24T00:55:14.072Z,0.00
2018-09-24T00:56:14.130Z,0.00
2018-09-24T00:57:14.188Z,0.00
2018-09-24T00:58:14.244Z,0.00
2018-09-24T00:59:14.302Z,0.00
2018-09-24T01:00:14.359Z,0.00
2018-09-24T01:01:14.416Z,0.00
2018-09-24T01:02:14.473Z,0.00
2018-09-24T01:03:14.531Z,0.00
2018-09-24T01:04:14.588Z,0.00
2018-09-24T01:05:14.645Z,0.00
2018-09-24T01:06:14.701Z,0.00
2018-09-24T01:07:15.011Z,0.00
2018-09-24T01:08:14.817Z,0.00
2018-09-24T01:09:14.874Z,0.00
2018-09-24T01:10:14.931Z,0.00
2018-09-24T01:11:14.990Z,0.00
2018-09-24T01:12:15.045Z,0.00
2018-09-24T01:13:15.104Z,0.00
2018-09-24T01:14:15.160Z,0.00
2018-09-24T01:15:15.218Z,0.00
2018-09-24T01:16:15.274Z,0.00
2018-09-24T01:17:15.336Z,0.00
2018-09-24T01:18:15.388Z,0.00
2018-09-24T01:19:15.446Z,0.00
2018-09-24T01:20:15.501Z,0.00
2018-09-24T01:21:15.560Z,0.00
2018-09-24T01:22:15.617Z,0.00
2018-09-24T01:23:15.675Z,0.00
2018-09-24T01:24:15.731Z,0.00
2018-09-24T01:25:15.788Z,0.00
2018-09-24T01:26:15.847Z,0.00
2018-09-24T01:27:15.903Z,0.00
2018-09-24T01:28:15.960Z,0.00
2018-09-24T01:29:16.018Z,0.00
2018-09-24T01:30:16.074Z,0.00
2018-09-24T01:31:16.131Z,0.00
2018-09-24T01:32:16.189Z,0.00
2018-09-24T01:33:16.246Z,0.00
2018-09-24T01:34:16.310Z,0.00
2018-09-24T01:35:16.360Z,0.00
2018-09-24T01:36:16.417Z,0.00
2018-09-24T01:37:16.475Z,0.00
2018-09-24T01:38:16.532Z,0.00
2018-09-24T01:39:16.589Z,0.00
2018-09-24T01:40:16.645Z,0.00
2018-09-24T01:41:16.703Z,0.00
2018-09-24T01:42:16.760Z,0.00
2018-09-24T01:43:16.816Z,0.00
2018-09-24T01:44:16.877Z,0.00
2018-09-24T01:45:16.933Z,0.00
2018-09-24T01:46:16.988Z,0.00
2018-09-24T01:47:17.045Z,0.00
2018-09-24T01:48:17.104Z,0.00
2018-09-24T01:49:17.160Z,0.00
2018-09-24T01:50:17.216Z,0.00
2018-09-24T01:51:17.274Z,0.00
2018-09-24T01:52:17.330Z,0.00
2018-09-24T01:53:17.390Z,0.00
2018-09-24T01:54:17.444Z,0.00
2018-09-24T01:55:17.504Z,0.00
2018-09-24T01:56:17.559Z,0.00
2018-09-24T01:57:17.616Z,0.00
2018-09-24T01:58:17.672Z,0.00
2018-09-24T01:59:17.730Z,0.00
2018-09-24T02:00:17.789Z,0.00
2018-09-24T02:01:17.845Z,0.00
2018-09-24T02:02:17.900Z,0.00
2018-09-24T02:03:17.958Z,0.00
2018-09-24T02:04:18.017Z,0.00
2018-09-24T02:05:18.073Z,0.00
2018-09-24T02:06:18.131Z,0.00
2018-09-24T02:07:18.190Z,0.00
2018-09-24T02:08:18.243Z,0.00
2018-09-24T02:09:18.301Z,0.00
2018-09-24T02:10:18.357Z,0.00
2018-09-24T02:11:18.414Z,0.00
2018-09-24T02:12:18.471Z,0.00
2018-09-24T02:13:18.529Z,0.00
2018-09-24T02:14:18.584Z,0.00
2018-09-24T02:15:18.641Z,0.00
2018-09-24T02:16:18.701Z,0.00
2018-09-24T02:17:18.757Z,0.00
2018-09-24T02:18:18.812Z,0.00
2018-09-24T02:19:18.870Z,0.00
2018-09-24T02:20:18.927Z,0.00
2018-09-24T02:21:18.991Z,0.00
2018-09-24T02:22:19.041Z,0.00
2018-09-24T02:23:19.099Z,0.00
2018-09-24T02:24:19.155Z,0.00
2018-09-24T02:25:19.212Z,0.00
2018-09-24T02:26:19.269Z,0.00
2018-09-24T02:27:19.326Z,0.00
2018-09-24T02:28:19.390Z,0.00
2018-09-24T02:29:19.440Z,0.00
2018-09-24T02:30:19.505Z,0.00
2018-09-24T02:31:19.554Z,0.00
2018-09-24T02:32:19.612Z,0.00
2018-09-24T02:33:19.668Z,0.00
2018-09-24T02:34:19.723Z,0.00
2018-09-24T02:35:19.781Z,0.00
2018-09-24T02:36:19.838Z,0.00
2018-09-24T02:37:19.895Z,0.00
2018-09-24T02:38:19.951Z,0.00
2018-09-24T02:39:20.008Z,0.00
2018-09-24T02:40:20.065Z,0.00
2018-09-24T02:41:20.123Z,0.00
2018-09-24T02:42:20.181Z,0.00
2018-09-24T02:43:20.236Z,0.00
2018-09-24T02:44:20.293Z,0.00
2018-09-24T02:45:20.351Z,0.00
2018-09-24T02:46:20.418Z,0.00
2018-09-24T02:47:20.468Z,0.00
2018-09-24T02:48:20.521Z,0.00
2018-09-24T02:49:20.577Z,0.00
2018-09-24T02:50:20.636Z,0.00
2018-09-24T02:51:20.690Z,0.00
2018-09-24T02:52:20.749Z,0.00
2018-09-24T02:53:20.804Z,0.00
2018-09-24T02:54:20.860Z,0.00
2018-09-24T02:55:20.918Z,0.00
2018-09-24T02:56:20.974Z,0.00
2018-09-24T02:57:21.032Z,0.00
2018-09-24T02:58:21.088Z,0.00
2018-09-24T02:59:21.144Z,0.00
2018-09-24T03:00:21.207Z,0.00
2018-09-24T03:01:21.319Z,0.00
2018-09-24T03:02:21.315Z,0.00
2018-09-24T03:03:21.372Z,0.00
2018-09-24T03:04:21.428Z,0.00
2018-09-24T03:05:21.486Z,0.00
2018-09-24T03:06:21.543Z,0.00
2018-09-24T03:07:21.600Z,0.00
2018-09-24T03:08:21.656Z,0.00
2018-09-24T03:09:21.712Z,0.00
2018-09-24T03:10:21.767Z,0.00
2018-09-24T03:11:21.826Z,0.00
2018-09-24T03:12:21.883Z,0.00
2018-09-24T03:13:21.941Z,0.00
2018-09-24T03:14:21.997Z,0.00
2018-09-24T03:15:22.053Z,0.00
2018-09-24T03:16:22.110Z,0.00
2018-09-24T03:17:22.169Z,0.00
2018-09-24T03:18:22.223Z,0.00
2018-09-24T03:19:22.281Z,0.00
2018-09-24T03:20:22.337Z,0.00
2018-09-24T03:21:22.397Z,0.00
2018-09-24T03:22:22.451Z,0.00
2018-09-24T03:23:22.509Z,0.00
2018-09-24T03:24:22.564Z,0.00
2018-09-24T03:25:22.620Z,0.00
2018-09-24T03:26:22.794Z,0.00
2018-09-24T03:27:22.734Z,0.00
2018-09-24T03:28:22.791Z,0.00
2018-09-24T03:29:22.848Z,0.00
2018-09-24T03:30:22.904Z,0.00
2018-09-24T03:31:22.962Z,0.00
2018-09-24T03:32:23.023Z,0.00
2018-09-24T03:33:23.075Z,0.00
2018-09-24T03:34:23.131Z,0.00
2018-09-24T03:35:23.188Z,0.00
2018-09-24T03:36:23.245Z,0.00
2018-09-24T03:37:23.301Z,0.00
2018-09-24T03:38:23.357Z,0.00
2018-09-24T03:39:23.416Z,0.00
2018-09-24T03:40:23.476Z,0.00
2018-09-24T03:41:23.530Z,0.00
2018-09-24T03:42:23.584Z,0.00
2018-09-24T03:43:23.641Z,0.00
2018-09-24T03:44:23.698Z,0.00
2018-09-24T03:45:23.758Z,0.00
2018-09-24T03:46:23.812Z,0.00
2018-09-24T03:47:23.868Z,0.00
2018-09-24T03:48:23.925Z,0.00
2018-09-24T03:49:23.986Z,0.00
2018-09-24T03:50:24.037Z,0.00
2018-09-24T03:51:24.094Z,0.00
2018-09-24T03:52:24.160Z,0.00
2018-09-24T03:53:24.207Z,0.00
2018-09-24T03:54:24.265Z,0.00
2018-09-24T03:55:24.324Z,0.00
2018-09-24T03:56:24.377Z,0.00
2018-09-24T03:57:24.476Z,0.00
2018-09-24T03:58:24.523Z,4.00
2018-09-24T03:59:24.798Z,4.00
2018-09-24T04:00:24.607Z,4.00
2018-09-24T04:01:24.660Z,8.00
2018-09-24T04:02:24.719Z,8.00
2018-09-24T04:03:24.774Z,8.00
2018-09-24T04:04:24.829Z,8.00
2018-09-24T04:05:24.894Z,8.00
2018-09-24T04:06:24.942Z,8.00
2018-09-24T04:07:25.000Z,8.00
2018-09-24T04:08:25.057Z,8.00
2018-09-24T04:09:25.178Z,8.00
2018-09-24T04:10:25.189Z,8.00
2018-09-24T04:11:25.225Z,8.00
2018-09-24T04:12:25.283Z,8.00
2018-09-24T04:13:25.340Z,8.00
2018-09-24T04:14:25.397Z,8.00
2018-09-24T04:15:25.454Z,8.00
2018-09-24T04:16:25.510Z,8.00
2018-09-24T04:17:25.616Z,8.00
2018-09-24T04:18:25.622Z,8.00
2018-09-24T04:19:25.718Z,8.00
2018-09-24T04:20:25.735Z,8.00
2018-09-24T04:21:25.793Z,8.00
2018-09-24T04:22:25.849Z,8.00
2018-09-24T04:23:25.905Z,8.00
2018-09-24T04:24:25.962Z,8.00
2018-09-24T04:25:26.347Z,8.00
2018-09-24T04:26:26.075Z,8.00
2018-09-24T04:27:26.131Z,8.00
2018-09-24T04:28:26.188Z,8.00
2018-09-24T04:29:26.245Z,8.00
2018-09-24T04:30:26.301Z,8.00
2018-09-24T04:31:26.357Z,8.00
2018-09-24T04:32:26.415Z,8.00
2018-09-24T04:33:26.471Z,8.00
2018-09-24T04:34:26.527Z,8.00
2018-09-24T04:35:26.583Z,8.00
2018-09-24T04:36:26.640Z,8.00
2018-09-24T04:37:26.695Z,8.00
2018-09-24T04:38:26.753Z,8.00
2018-09-24T04:39:26.826Z,8.00
2018-09-24T04:40:26.866Z,8.00
2018-09-24T04:41:26.923Z,8.00
2018-09-24T04:42:26.978Z,8.00
2018-09-24T04:43:27.375Z,8.00
2018-09-24T04:44:27.092Z,8.00
2018-09-24T04:45:27.149Z,8.00
2018-09-24T04:46:27.208Z,8.00
2018-09-24T04:47:27.262Z,4.00
2018-09-24T04:48:27.317Z,8.00
2018-09-24T04:49:27.375Z,8.00
2018-09-24T04:50:27.432Z,8.00
2018-09-24T04:51:27.486Z,8.00
2018-09-24T04:52:27.547Z,12.00
2018-09-24T04:53:27.600Z,8.00
2018-09-24T04:54:27.659Z,12.00
2018-09-24T04:55:27.712Z,8.00
2018-09-24T04:56:27.772Z,12.00
2018-09-24T04:57:27.827Z,12.00
2018-09-24T04:58:27.891Z,12.00
2018-09-24T04:59:27.941Z,16.00
2018-09-24T05:00:27.994Z,20.00
2018-09-24T05:01:28.053Z,24.00
2018-09-24T05:02:28.107Z,24.00
2018-09-24T05:03:28.164Z,28.00
2018-09-24T05:04:28.222Z,32.00
2018-09-24T05:05:28.277Z,36.00
2018-09-24T05:06:28.333Z,40.00
2018-09-24T05:07:28.390Z,48.00
2018-09-24T05:08:28.446Z,56.00
2018-09-24T05:09:28.505Z,64.00
2018-09-24T05:10:28.559Z,76.00
2018-09-24T05:11:28.616Z,84.00
2018-09-24T05:12:28.672Z,92.00
2018-09-24T05:13:28.728Z,104.00
2018-09-24T05:14:28.784Z,120.00
2018-09-24T05:15:28.840Z,136.00
2018-09-24T05:16:28.986Z,152.00
2018-09-24T05:17:28.955Z,168.00
2018-09-24T05:18:29.014Z,188.00
2018-09-24T05:19:29.069Z,208.00
2018-09-24T05:20:29.124Z,228.00
2018-09-24T05:21:29.183Z,256.00
2018-09-24T05:22:29.236Z,276.00
2018-09-24T05:23:29.292Z,300.00
2018-09-24T05:24:29.348Z,328.00
2018-09-24T05:25:29.407Z,356.00
2018-09-24T05:26:29.461Z,384.00
2018-09-24T05:27:29.609Z,416.00
2018-09-24T05:28:29.574Z,444.00
2018-09-24T05:29:30.363Z,472.00
2018-09-24T05:30:30.415Z,504.00
2018-09-24T05:31:30.602Z,536.00
2018-09-24T05:32:30.548Z,568.00
2018-09-24T05:33:30.389Z,600.00
2018-09-24T05:34:30.641Z,632.00
2018-09-24T05:35:30.629Z,664.00
2018-09-24T05:36:30.689Z,696.00
2018-09-24T05:37:30.695Z,728.00
2018-09-24T05:38:30.788Z,764.00
2018-09-24T05:39:30.947Z,796.00
2018-09-24T05:40:30.864Z,824.00
2018-09-24T05:41:31.025Z,856.00
2018-09-24T05:42:31.098Z,892.00
2018-09-24T05:43:31.022Z,924.00
2018-09-24T05:44:31.204Z,952.00
2018-09-24T05:45:31.387Z,984.00
2018-09-24T05:46:31.589Z,1020.00
2018-09-24T05:47:31.362Z,1048.00
2018-09-24T05:48:31.405Z,1080.00
2018-09-24T05:49:31.356Z,1112.00
2018-09-24T05:50:31.473Z,1140.00
2018-09-24T05:51:31.599Z,1168.00
2018-09-24T05:52:31.541Z,1196.00
2018-09-24T05:53:31.675Z,1220.00
2018-09-24T05:54:31.775Z,1248.00
2018-09-24T05:55:31.097Z,1276.00
2018-09-24T05:56:31.154Z,1300.00
2018-09-24T05:57:31.209Z,1332.00
2018-09-24T05:58:31.290Z,1352.00
2018-09-24T05:59:31.323Z,1380.00
2018-09-24T06:00:31.413Z,1408.00
2018-09-24T06:01:31.436Z,1432.00
2018-09-24T06:02:31.492Z,1456.00
2018-09-24T06:03:31.551Z,1480.00
2018-09-24T06:04:31.639Z,1500.00
2018-09-24T06:05:31.663Z,1524.00
2018-09-24T06:06:31.722Z,1544.00
2018-09-24T06:07:31.777Z,1564.00
2018-09-24T06:08:31.831Z,1588.00
2018-09-24T06:09:31.888Z,1608.00
2018-09-24T06:10:31.947Z,1624.00
2018-09-24T06:11:32.001Z,1648.00
2018-09-24T06:12:32.066Z,1668.00
2018-09-24T06:13:32.186Z,1688.00
2018-09-24T06:14:32.169Z,1708.00
2018-09-24T06:15:32.226Z,1728.00
2018-09-24T06:16:33.206Z,1748.00
2018-09-24T06:17:32.340Z,1760.00
2018-09-24T06:18:32.395Z,1776.00
2018-09-24T06:19:32.451Z,1796.00
2018-09-24T06:20:32.508Z,1816.00
2018-09-24T06:21:32.568Z,1836.00
2018-09-24T06:22:32.624Z,1852.00
2018-09-24T06:23:32.680Z,1872.00
2018-09-24T06:24:32.734Z,1888.00
2018-09-24T06:25:32.807Z,1904.00
2018-09-24T06:26:32.847Z,1920.00
2018-09-24T06:27:32.909Z,1936.00
2018-09-24T06:28:33.036Z,1956.00
2018-09-24T06:29:33.018Z,1976.00
2018-09-24T06:30:33.074Z,1996.00
2018-09-24T06:31:33.137Z,2012.00
2018-09-24T06:32:33.187Z,2028.00
2018-09-24T06:33:33.244Z,2048.00
2018-09-24T06:34:33.300Z,2068.00
2018-09-24T06:35:33.359Z,2080.00
2018-09-24T06:36:33.414Z,2096.00
2018-09-24T06:37:33.472Z,2116.00
2018-09-24T06:38:33.527Z,2132.00
2018-09-24T06:39:33.585Z,2148.00
2018-09-24T06:40:33.642Z,2168.00
2018-09-24T06:41:33.701Z,2180.00
2018-09-24T06:42:33.753Z,2200.00
2018-09-24T06:43:34.500Z,2220.00
2018-09-24T06:44:33.867Z,2236.00
2018-09-24T06:45:33.924Z,2256.00
2018-09-24T06:46:33.980Z,2272.00
2018-09-24T06:47:34.036Z,2296.00
2018-09-24T06:48:34.095Z,2324.00
2018-09-24T06:49:34.158Z,2348.00
2018-09-24T06:50:34.207Z,2372.00
2018-09-24T06:51:34.264Z,2388.00
2018-09-24T06:52:34.470Z,2408.00
2018-09-24T06:53:34.378Z,2420.00
2018-09-24T06:54:34.434Z,2428.00
2018-09-24T06:55:34.492Z,2444.00
2018-09-24T06:56:34.550Z,2452.00
2018-09-24T06:57:34.967Z,2464.00
2018-09-24T06:58:34.661Z,2476.00
2018-09-24T06:59:34.762Z,2488.00
2018-09-24T07:00:34.777Z,2500.00
2018-09-24T07:01:34.833Z,2508.00
2018-09-24T07:02:34.889Z,2520.00
2018-09-24T07:03:34.947Z,2532.00
2018-09-24T07:04:35.004Z,2548.00
2018-09-24T07:05:35.163Z,2560.00
2018-09-24T07:06:35.117Z,2568.00
2018-09-24T07:07:35.174Z,2580.00
2018-09-24T07:08:35.233Z,2592.00
2018-09-24T07:09:35.289Z,2604.00
2018-09-24T07:10:35.351Z,2616.00
2018-09-24T07:11:35.403Z,2632.00
2018-09-24T07:12:35.460Z,2640.00
2018-09-24T07:13:35.517Z,2652.00
2018-09-24T07:14:35.572Z,2660.00
2018-09-24T07:15:35.632Z,2668.00
2018-09-24T07:16:35.688Z,2676.00
2018-09-24T07:17:35.747Z,2676.00
2018-09-24T07:18:35.803Z,2688.00
2018-09-24T07:19:35.860Z,2704.00
2018-09-24T07:20:35.923Z,2708.00
2018-09-24T07:21:36.378Z,2720.00
2018-09-24T07:22:36.032Z,2732.00
2018-09-24T07:23:36.090Z,2736.00
2018-09-24T07:24:36.149Z,2748.00
2018-09-24T07:25:36.529Z,2764.00
2018-09-24T07:26:36.261Z,2772.00
2018-09-24T07:27:36.364Z,2784.00
2018-09-24T07:28:36.377Z,2784.00
2018-09-24T07:29:36.435Z,2792.00
2018-09-24T07:30:36.527Z,2804.00
2018-09-24T07:31:36.590Z,2808.00
2018-09-24T07:32:36.607Z,2820.00
2018-09-24T07:33:36.665Z,2832.00
2018-09-24T07:34:37.031Z,2840.00
2018-09-24T07:35:36.779Z,2848.00
2018-09-24T07:36:36.871Z,2856.00
2018-09-24T07:37:36.895Z,2868.00
2018-09-24T07:38:36.983Z,2880.00
2018-09-24T07:39:37.045Z,2892.00
2018-09-24T07:40:37.102Z,2904.00
2018-09-24T07:41:37.129Z,2912.00
2018-09-24T07:42:37.223Z,2924.00
2018-09-24T07:43:37.369Z,2932.00
2018-09-24T07:44:37.332Z,2940.00
2018-09-24T07:45:37.389Z,2952.00
2018-09-24T07:46:37.449Z,2964.00
2018-09-24T07:47:37.473Z,2968.00
2018-09-24T07:48:37.535Z,2976.00
2018-09-24T07:49:37.589Z,2980.00
2018-09-24T07:50:37.648Z,2988.00
2018-09-24T07:51:37.705Z,2992.00
2018-09-24T07:52:37.763Z,3000.00
2018-09-24T07:53:37.826Z,3012.00
2018-09-24T07:54:37.881Z,3016.00
2018-09-24T07:55:38.013Z,3032.00
2018-09-24T07:56:38.001Z,3036.00
2018-09-24T07:57:38.057Z,3044.00
2018-09-24T07:58:38.111Z,3048.00
2018-09-24T07:59:38.168Z,3060.00
2018-09-24T08:00:38.227Z,3068.00
2018-09-24T08:01:38.340Z,3076.00
2018-09-24T08:02:38.343Z,3088.00
2018-09-24T08:03:38.402Z,3092.00
2018-09-24T08:04:38.467Z,3104.00
2018-09-24T08:05:38.522Z,3104.00
2018-09-24T08:06:38.577Z,3112.00
2018-09-24T08:07:38.695Z,3120.00
2018-09-24T08:08:38.694Z,3128.00
2018-09-24T08:09:38.760Z,3136.00
2018-09-24T08:10:39.160Z,3156.00
2018-09-24T08:11:38.868Z,3168.00
2018-09-24T08:12:38.929Z,3180.00
2018-09-24T08:13:39.459Z,3192.00
2018-09-24T08:14:39.425Z,3200.00
2018-09-24T08:15:39.104Z,3212.00
2018-09-24T08:16:39.163Z,3228.00
2018-09-24T08:17:39.579Z,3252.00
2018-09-24T08:18:39.278Z,3236.00
2018-09-24T08:19:39.337Z,3240.00
2018-09-24T08:20:39.403Z,3252.00
2018-09-24T08:21:39.877Z,3256.00
2018-09-24T08:22:39.515Z,3308.00
2018-09-24T08:23:39.823Z,3500.00
2018-09-24T08:24:39.633Z,3584.00
2018-09-24T08:25:39.692Z,3620.00
2018-09-24T08:26:39.747Z,3596.00
2018-09-24T08:27:39.810Z,3596.00
2018-09-24T08:28:39.866Z,3628.00
2018-09-24T08:29:39.927Z,3676.00
2018-09-24T08:30:39.984Z,4024.00
2018-09-24T08:31:40.397Z,4072.00
2018-09-24T08:32:40.103Z,4060.00
2018-09-24T08:33:40.162Z,3984.00
2018-09-24T08:34:40.220Z,4088.00
2018-09-24T08:35:41.084Z,4044.00
2018-09-24T08:36:40.342Z,3832.00
2018-09-24T08:37:40.399Z,3712.00
2018-09-24T08:38:40.460Z,3692.00
2018-09-24T08:39:40.516Z,3744.00
2018-09-24T08:40:40.581Z,3536.00
2018-09-24T08:41:40.635Z,4036.00
2018-09-24T08:42:40.694Z,3992.00
2018-09-24T08:43:41.257Z,3948.00
2018-09-24T08:44:40.817Z,3644.00
2018-09-24T08:45:40.978Z,4048.00
2018-09-24T08:46:40.933Z,4320.00
2018-09-24T08:47:40.992Z,4616.00
2018-09-24T08:48:41.052Z,4972.00
2018-09-24T08:49:41.152Z,4160.00
2018-09-24T08:50:41.176Z,3976.00
2018-09-24T08:51:41.228Z,3872.00
2018-09-24T08:52:41.291Z,4004.00
2018-09-24T08:53:41.348Z,4016.00
2018-09-24T08:54:41.419Z,4060.00
2018-09-24T08:55:41.469Z,4016.00
2018-09-24T08:56:41.536Z,4044.00
2018-09-24T08:57:41.896Z,4048.00
2018-09-24T08:58:41.975Z,4088.00
2018-09-24T08:59:41.706Z,4064.00
2018-09-24T09:00:41.784Z,3916.00
2018-09-24T09:01:41.826Z,4100.00
2018-09-24T09:02:41.951Z,4336.00
2018-09-24T09:03:41.943Z,4492.00
2018-09-24T09:04:42.004Z,3972.00
2018-09-24T09:05:42.372Z,4088.00
2018-09-24T09:06:42.123Z,4076.00
2018-09-24T09:07:42.180Z,3968.00
2018-09-24T09:08:42.243Z,3828.00
2018-09-24T09:09:42.928Z,3784.00
2018-09-24T09:10:42.359Z,4184.00
2018-09-24T09:11:42.420Z,4332.00
2018-09-24T09:12:42.480Z,4552.00
2018-09-24T09:13:42.545Z,5052.00
2018-09-24T09:14:42.599Z,5864.00
2018-09-24T09:15:42.969Z,6008.00
2018-09-24T09:16:42.717Z,5896.00
2018-09-24T09:17:42.779Z,5244.00
2018-09-24T09:18:42.839Z,4892.00
2018-09-24T09:19:42.898Z,5304.00
2018-09-24T09:20:42.959Z,5296.00
2018-09-24T09:21:43.018Z,5420.00
2018-09-24T09:22:43.078Z,4900.00
2018-09-24T09:23:43.137Z,5648.00
2018-09-24T09:24:43.198Z,7060.00
2018-09-24T09:25:43.259Z,9416.00
2018-09-24T09:26:43.753Z,11036.00
2018-09-24T09:27:43.378Z,11240.00
2018-09-24T09:28:43.483Z,10616.00
2018-09-24T09:29:43.503Z,11284.00
2018-09-24T09:30:43.558Z,11616.00
2018-09-24T09:31:43.619Z,11324.00
2018-09-24T09:32:43.680Z,13272.00
2018-09-24T09:33:43.740Z,14740.00
2018-09-24T09:34:43.800Z,14496.00
2018-09-24T09:35:43.871Z,14352.00
2018-09-24T09:36:43.921Z,14252.00
2018-09-24T09:37:43.982Z,12896.00
2018-09-24T09:38:44.043Z,11520.00
2018-09-24T09:39:44.117Z,11172.00
2018-09-24T09:40:44.164Z,10768.00
2018-09-24T09:41:44.234Z,11288.00
2018-09-24T09:42:44.295Z,12912.00
2018-09-24T09:43:44.347Z,13364.00
2018-09-24T09:44:44.409Z,14008.00
2018-09-24T09:45:44.469Z,13764.00
2018-09-24T09:46:44.555Z,12160.00
2018-09-24T09:47:44.591Z,11056.00
2018-09-24T09:48:44.668Z,9648.00
2018-09-24T09:49:44.714Z,9524.00
2018-09-24T09:50:44.773Z,9800.00
2018-09-24T09:51:45.420Z,10660.00
2018-09-24T09:52:44.897Z,9188.00
2018-09-24T09:53:45.076Z,8308.00
2018-09-24T09:54:45.020Z,7492.00
2018-09-24T09:55:45.080Z,7740.00
2018-09-24T09:56:45.142Z,8684.00
2018-09-24T09:57:45.202Z,9576.00
2018-09-24T09:58:45.265Z,10224.00
2018-09-24T09:59:45.351Z,8744.00
2018-09-24T10:00:45.386Z,8232.00
2018-09-24T10:01:45.446Z,8332.00
2018-09-24T10:02:45.506Z,8724.00
2018-09-24T10:03:45.568Z,8900.00
2018-09-24T10:04:45.667Z,8832.00
2018-09-24T10:05:45.691Z,8804.00
2018-09-24T10:06:45.750Z,8724.00
2018-09-24T10:07:45.811Z,9700.00
2018-09-24T10:08:45.873Z,11004.00
2018-09-24T10:09:45.935Z,12376.00
2018-09-24T10:10:45.994Z,12748.00
2018-09-24T10:11:46.055Z,12020.00
2018-09-24T10:12:46.116Z,11132.00
2018-09-24T10:13:46.178Z,11360.00
2018-09-24T10:14:46.237Z,11412.00
2018-09-24T10:15:46.309Z,9684.00
2018-09-24T10:16:46.362Z,10124.00
2018-09-24T10:17:46.424Z,10820.00
2018-09-24T10:18:46.486Z,11852.00
2018-09-24T10:19:46.545Z,12624.00
2018-09-24T10:20:46.606Z,12136.00
2018-09-24T10:21:46.668Z,12236.00
2018-09-24T10:22:46.809Z,11872.00
2018-09-24T10:23:46.789Z,11668.00
2018-09-24T10:24:46.851Z,12108.00
2018-09-24T10:25:46.913Z,11692.00
2018-09-24T10:26:46.973Z,11752.00
2018-09-24T10:27:47.034Z,10412.00
2018-09-24T10:28:47.096Z,9736.00
2018-09-24T10:29:47.157Z,8900.00
2018-09-24T10:30:47.218Z,8520.00
2018-09-24T10:31:47.279Z,7992.00
2018-09-24T10:32:47.343Z,7820.00
2018-09-24T10:33:47.462Z,7564.00
2018-09-24T10:34:47.462Z,8004.00
2018-09-24T10:35:47.524Z,8624.00
2018-09-24T10:36:47.585Z,9424.00
2018-09-24T10:37:47.646Z,9364.00
2018-09-24T10:38:47.707Z,10580.00
2018-09-24T10:39:47.840Z,13388.00
2018-09-24T10:40:47.829Z,16736.00
2018-09-24T10:41:47.890Z,17856.00
2018-09-24T10:42:47.951Z,17888.00
2018-09-24T10:43:48.011Z,17024.00
2018-09-24T10:44:48.073Z,14388.00
2018-09-24T10:45:48.139Z,13008.00
2018-09-24T10:46:48.196Z,10604.00
2018-09-24T10:47:48.258Z,10308.00
2018-09-24T10:48:48.319Z,10376.00
2018-09-24T10:49:48.381Z,8544.00
2018-09-24T10:50:48.442Z,7820.00
2018-09-24T10:51:48.507Z,6996.00
2018-09-24T10:52:48.654Z,6648.00
2018-09-24T10:53:48.630Z,6496.00
2018-09-24T10:54:48.695Z,6956.00
2018-09-24T10:55:48.761Z,7092.00
2018-09-24T10:56:48.815Z,6932.00
2018-09-24T10:57:48.876Z,7004.00
2018-09-24T10:58:48.955Z,6940.00
2018-09-24T10:59:49.000Z,8692.00
2018-09-24T11:00:49.062Z,50912.00
2018-09-24T11:01:49.125Z,51520.00
2018-09-24T11:02:49.185Z,50976.00
2018-09-24T11:03:49.248Z,51104.00
2018-09-24T11:04:49.363Z,10084.00
2018-09-24T11:05:49.375Z,9016.00
2018-09-24T11:06:49.434Z,45664.00
2018-09-24T11:07:49.496Z,10036.00
2018-09-24T11:08:49.560Z,10188.00
2018-09-24T11:09:49.665Z,10612.00
2018-09-24T11:10:49.685Z,32416.00
2018-09-24T11:11:49.748Z,8668.00
2018-09-24T11:12:49.809Z,8280.00
2018-09-24T11:13:49.872Z,6812.00
2018-09-24T11:14:49.943Z,6660.00
2018-09-24T11:15:50.095Z,6444.00
2018-09-24T11:16:50.113Z,7224.00
2018-09-24T11:17:50.446Z,43776.00
2018-09-24T11:18:50.185Z,42432.00
2018-09-24T11:19:50.251Z,42240.00
2018-09-24T11:20:50.312Z,41248.00
2018-09-24T11:21:50.374Z,40160.00
2018-09-24T11:22:50.437Z,43104.00
2018-09-24T11:23:50.498Z,43872.00
2018-09-24T11:24:50.560Z,46208.00
2018-09-24T11:25:50.624Z,48128.00
2018-09-24T11:26:50.688Z,49312.00
2018-09-24T11:27:50.755Z,47360.00
2018-09-24T11:28:50.815Z,40768.00
2018-09-24T11:29:50.882Z,14896.00
2018-09-24T11:30:50.942Z,15224.00
2018-09-24T11:31:51.009Z,13512.00
2018-09-24T11:32:51.074Z,12296.00
2018-09-24T11:33:51.138Z,11264.00
2018-09-24T11:34:51.201Z,10492.00
2018-09-24T11:35:51.268Z,10568.00
2018-09-24T11:36:51.330Z,10748.00
2018-09-24T11:37:51.395Z,11620.00
2018-09-24T11:38:51.457Z,12192.00
2018-09-24T11:39:51.520Z,12328.00
2018-09-24T11:40:51.584Z,11264.00
2018-09-24T11:41:51.648Z,10732.00
2018-09-24T11:42:51.712Z,11204.00
2018-09-24T11:43:52.386Z,12968.00
2018-09-24T11:44:51.841Z,15448.00
2018-09-24T11:45:51.903Z,18400.00
2018-09-24T11:46:52.092Z,24064.00
2018-09-24T11:47:52.029Z,23488.00
2018-09-24T11:48:52.094Z,24032.00
2018-09-24T11:49:52.156Z,22880.00
2018-09-24T11:50:52.219Z,19648.00
2018-09-24T11:51:52.283Z,18304.00
2018-09-24T11:52:52.346Z,17920.00
2018-09-24T11:53:52.411Z,17440.00
2018-09-24T11:54:52.472Z,18144.00
2018-09-24T11:55:52.538Z,18848.00
2018-09-24T11:56:52.600Z,19008.00
2018-09-24T11:57:52.665Z,19552.00
2018-09-24T11:58:52.728Z,20192.00
2018-09-24T11:59:52.790Z,23392.00
2018-09-24T12:00:52.855Z,17568.00
2018-09-24T12:01:53.516Z,17600.00
2018-09-24T12:02:52.980Z,17888.00
2018-09-24T12:03:53.045Z,16828.00
2018-09-24T12:04:53.108Z,16168.00
2018-09-24T12:05:53.174Z,16020.00
2018-09-24T12:06:53.234Z,16844.00
2018-09-24T12:07:53.315Z,18592.00
2018-09-24T12:08:53.362Z,19584.00
2018-09-24T12:09:53.425Z,20768.00
2018-09-24T12:10:53.490Z,18464.00
2018-09-24T12:11:53.554Z,17056.00
2018-09-24T12:12:53.638Z,16668.00
2018-09-24T12:13:53.681Z,17036.00
2018-09-24T12:14:53.743Z,17984.00
2018-09-24T12:15:53.807Z,18624.00
2018-09-24T12:16:53.871Z,19136.00
2018-09-24T12:17:53.936Z,18752.00
2018-09-24T12:18:54.005Z,16724.00
2018-09-24T12:19:54.063Z,16400.00
2018-09-24T12:20:54.128Z,15376.00
2018-09-24T12:21:54.190Z,14280.00
2018-09-24T12:22:54.253Z,13824.00
2018-09-24T12:23:54.314Z,14636.00
2018-09-24T12:24:54.384Z,17084.00
2018-09-24T12:25:54.442Z,18336.00
2018-09-24T12:26:54.504Z,21408.00
2018-09-24T12:27:54.570Z,45568.00
2018-09-24T12:28:54.633Z,20608.00
2018-09-24T12:29:54.692Z,23808.00
2018-09-24T12:30:54.755Z,44960.00